Time;durP1;ratioP1;P1;durP2;ratioP2;P2;SDS_P1;SDS_P2;PMS_P1;PMS_P2;Temp;Humidity;BMP_temperature;BMP_pressure;BME280_temperature;BME280_humidity;BME280_pressure;Samples;Min_cycle;Max_cycle;Signal;HPM_P1;HPM_P2
2021/08/14 00:00:52;;;;;;;14.47;7.88;;;;;;;;;;367678;145;858279;-59
2021/08/14 00:01:53;;;;;;;14.26;8.20;;;;;;;;;;366438;147;860650;-59
2021/08/14 00:02:55;;;;;;;13.16;7.40;;;;;;;;;;366184;147;857240;-59
2021/08/14 00:03:56;;;;;;;12.10;7.18;;;;;;;;;;368312;144;857344;-59
2021/08/14 00:04:58;;;;;;;11.87;7.49;;;;;;;;;;361277;147;857261;-59
2021/08/14 00:06:00;;;;;;;12.16;7.20;;;;;;;;;;363961;147;858859;-59
2021/08/14 00:07:02;;;;;;;13.80;6.78;;;;;;;;;;365430;145;857379;-59
2021/08/14 00:08:04;;;;;;;13.86;6.62;;;;;;;;;;365836;146;857289;-59
2021/08/14 00:09:05;;;;;;;9.83;6.79;;;;;;;;;;366462;147;866447;-59
2021/08/14 00:10:09;;;;;;;13.11;6.62;;;;;;;;;;364025;144;858375;-59
2021/08/14 00:11:11;;;;;;;14.08;5.86;;;;;;;;;;365404;145;857337;-59
2021/08/14 00:12:13;;;;;;;11.72;6.63;;;;;;;;;;365457;147;857249;-60
2021/08/14 00:13:14;;;;;;;12.83;6.74;;;;;;;;;;366554;147;858936;-59
2021/08/14 00:14:16;;;;;;;13.32;7.33;;;;;;;;;;367607;144;857336;-59
2021/08/14 00:15:17;;;;;;;14.61;6.76;;;;;;;;;;359238;147;857883;-59
2021/08/14 00:16:21;;;;;;;11.71;7.41;;;;;;;;;;356350;151;857135;-59
2021/08/14 00:17:22;;;;;;;13.41;7.10;;;;;;;;;;357241;148;859629;-59
2021/08/14 00:18:24;;;;;;;11.34;6.65;;;;;;;;;;361300;145;865713;-59
2021/08/14 00:19:25;;;;;;;13.70;6.93;;;;;;;;;;365087;147;857306;-59
2021/08/14 00:20:28;;;;;;;11.75;7.13;;;;;;;;;;365043;146;857224;-60
2021/08/14 00:21:30;;;;;;;14.91;6.74;;;;;;;;;;366876;145;865357;-59
2021/08/14 00:22:32;;;;;;;12.43;6.69;;;;;;;;;;366683;145;857247;-59
2021/08/14 00:23:34;;;;;;;11.26;6.67;;;;;;;;;;366330;147;857196;-59
2021/08/14 00:24:35;;;;;;;12.54;7.05;;;;;;;;;;364747;145;857439;-59
2021/08/14 00:25:37;;;;;;;12.24;6.57;;;;;;;;;;365489;145;858837;-59
2021/08/14 00:26:39;;;;;;;15.41;7.12;;;;;;;;;;365332;147;860272;-59
2021/08/14 00:27:40;;;;;;;12.66;7.11;;;;;;;;;;365256;147;858638;-60
2021/08/14 00:28:42;;;;;;;11.62;6.96;;;;;;;;;;365908;145;866529;-59
2021/08/14 00:29:44;;;;;;;11.29;6.73;;;;;;;;;;365237;145;859127;-60
2021/08/14 00:30:46;;;;;;;13.92;6.98;;;;;;;;;;364096;146;858578;-59
2021/08/14 00:31:48;;;;;;;10.16;5.81;;;;;;;;;;365765;144;857209;-60
2021/08/14 00:32:51;;;;;;;14.24;6.84;;;;;;;;;;363679;145;858115;-59
2021/08/14 00:33:53;;;;;;;9.56;6.79;;;;;;;;;;362530;146;858574;-61
2021/08/14 00:34:55;;;;;;;10.74;6.81;;;;;;;;;;371885;144;858476;-60
2021/08/14 00:35:56;;;;;;;10.61;6.93;;;;;;;;;;367804;144;865010;-58
2021/08/14 00:36:59;;;;;;;9.82;6.48;;;;;;;;;;366728;144;857384;-59
2021/08/14 00:38:00;;;;;;;9.73;6.86;;;;;;;;;;365243;144;859686;-60
2021/08/14 00:39:02;;;;;;;10.79;6.53;;;;;;;;;;366180;146;859179;-60
2021/08/14 00:40:05;;;;;;;13.09;7.47;;;;;;;;;;365732;145;859013;-59
2021/08/14 00:41:07;;;;;;;10.99;6.74;;;;;;;;;;365301;145;857223;-60
2021/08/14 00:42:08;;;;;;;14.04;7.25;;;;;;;;;;369744;144;858651;-60
2021/08/14 00:43:10;;;;;;;18.94;7.26;;;;;;;;;;366315;145;857347;-59
2021/08/14 00:44:11;;;;;;;9.96;6.37;;;;;;;;;;365162;145;865351;-59
2021/08/14 00:45:13;;;;;;;17.57;6.82;;;;;;;;;;365186;147;857185;-60
2021/08/14 00:46:16;;;;;;;15.00;7.03;;;;;;;;;;365153;147;866639;-60
2021/08/14 00:47:19;;;;;;;15.77;7.42;;;;;;;;;;365671;144;864960;-60
2021/08/14 00:48:21;;;;;;;13.84;7.21;;;;;;;;;;365966;144;857360;-60
2021/08/14 00:49:22;;;;;;;19.29;6.91;;;;;;;;;;362588;148;858483;-59
2021/08/14 00:50:25;;;;;;;14.47;6.84;;;;;;;;;;361751;147;865003;-59
2021/08/14 00:51:26;;;;;;;14.26;7.49;;;;;;;;;;362001;146;857222;-60
2021/08/14 00:52:28;;;;;;;11.31;6.90;;;;;;;;;;358660;148;857563;-60
2021/08/14 00:53:29;;;;;;;11.78;6.66;;;;;;;;;;359761;146;857210;-60
2021/08/14 00:54:31;;;;;;;11.14;6.88;;;;;;;;;;366576;145;866244;-59
2021/08/14 00:55:32;;;;;;;11.97;6.63;;;;;;;;;;364606;146;857699;-60
2021/08/14 00:56:34;;;;;;;9.05;6.39;;;;;;;;;;365678;147;859960;-60
2021/08/14 00:57:36;;;;;;;10.16;6.13;;;;;;;;;;364193;145;857310;-60
2021/08/14 00:58:37;;;;;;;9.07;6.27;;;;;;;;;;365781;144;857764;-59
2021/08/14 00:59:39;;;;;;;10.08;5.84;;;;;;;;;;364380;145;857339;-59
2021/08/14 01:00:42;;;;;;;10.04;6.28;;;;;;;;;;365650;147;857029;-59
2021/08/14 01:01:44;;;;;;;11.57;6.61;;;;;;;;;;366960;144;857298;-59
2021/08/14 01:02:46;;;;;;;9.94;6.14;;;;;;;;;;364144;145;858955;-60
2021/08/14 01:03:48;;;;;;;8.41;5.93;;;;;;;;;;364618;147;864917;-60
2021/08/14 01:04:50;;;;;;;10.25;6.47;;;;;;;;;;367293;145;857151;-59
2021/08/14 01:05:51;;;;;;;10.59;6.64;;;;;;;;;;366234;145;857070;-59
2021/08/14 01:06:54;;;;;;;10.43;6.46;;;;;;;;;;369020;144;864950;-59
2021/08/14 01:07:55;;;;;;;11.49;6.16;;;;;;;;;;367334;144;857310;-60
2021/08/14 01:08:57;;;;;;;11.94;6.82;;;;;;;;;;365224;145;857221;-60
2021/08/14 01:09:58;;;;;;;11.35;6.60;;;;;;;;;;367340;145;858801;-59
2021/08/14 01:11:00;;;;;;;11.21;6.47;;;;;;;;;;366227;145;859458;-59
2021/08/14 01:12:02;;;;;;;11.00;6.54;;;;;;;;;;363041;147;865888;-59
2021/08/14 01:13:04;;;;;;;9.68;6.01;;;;;;;;;;359201;147;857965;-60
2021/08/14 01:14:06;;;;;;;12.02;6.21;;;;;;;;;;362882;147;857158;-59
2021/08/14 01:15:08;;;;;;;10.80;7.24;;;;;;;;;;364620;147;866064;-59
2021/08/14 01:16:12;;;;;;;12.84;6.17;;;;;;;;;;366565;144;858836;-59
2021/08/14 01:17:14;;;;;;;9.24;5.65;;;;;;;;;;364363;146;865432;-60
2021/08/14 01:18:16;;;;;;;14.39;6.80;;;;;;;;;;365409;145;866448;-60
2021/08/14 01:19:18;;;;;;;8.91;5.99;;;;;;;;;;365875;144;857980;-60
2021/08/14 01:20:21;;;;;;;11.49;6.29;;;;;;;;;;366363;145;857383;-60
2021/08/14 01:21:23;;;;;;;11.33;5.99;;;;;;;;;;365281;145;865340;-60
2021/08/14 01:22:25;;;;;;;17.49;6.41;;;;;;;;;;366543;147;864978;-60
2021/08/14 01:23:27;;;;;;;12.25;6.50;;;;;;;;;;367056;144;857810;-59
2021/08/14 01:24:28;;;;;;;10.03;5.99;;;;;;;;;;364490;144;859345;-59
2021/08/14 01:25:30;;;;;;;10.34;6.17;;;;;;;;;;362467;147;858865;-60
2021/08/14 01:26:33;;;;;;;10.94;5.80;;;;;;;;;;363790;147;858215;-60
2021/08/14 01:27:35;;;;;;;10.20;6.41;;;;;;;;;;365345;145;857267;-59
2021/08/14 01:28:37;;;;;;;10.88;6.93;;;;;;;;;;368622;144;867122;-59
2021/08/14 01:29:39;;;;;;;10.29;6.33;;;;;;;;;;367126;146;858124;-59
2021/08/14 01:30:42;;;;;;;11.23;5.81;;;;;;;;;;366236;145;857724;-59
2021/08/14 01:31:44;;;;;;;10.68;6.65;;;;;;;;;;364804;145;857635;-60
2021/08/14 01:32:46;;;;;;;11.68;6.79;;;;;;;;;;361778;148;859538;-59
2021/08/14 01:33:47;;;;;;;11.68;6.66;;;;;;;;;;359052;148;858620;-60
2021/08/14 01:34:50;;;;;;;11.01;6.76;;;;;;;;;;356974;148;864891;-60
2021/08/14 01:35:52;;;;;;;11.99;7.00;;;;;;;;;;355609;148;857669;-59
2021/08/14 01:36:54;;;;;;;12.81;6.83;;;;;;;;;;358262;148;857355;-60
2021/08/14 01:37:56;;;;;;;12.48;6.59;;;;;;;;;;358509;148;857268;-60
2021/08/14 01:38:58;;;;;;;12.09;6.52;;;;;;;;;;357276;147;866783;-60
2021/08/14 01:40:00;;;;;;;13.81;6.50;;;;;;;;;;356875;150;859016;-59
2021/08/14 01:41:03;;;;;;;10.34;6.54;;;;;;;;;;358080;148;859107;-59
2021/08/14 01:42:05;;;;;;;10.77;6.42;;;;;;;;;;357227;148;865255;-60
2021/08/14 01:43:07;;;;;;;10.73;6.71;;;;;;;;;;358066;149;857087;-60
2021/08/14 01:44:08;;;;;;;9.87;6.97;;;;;;;;;;357648;147;859028;-60
2021/08/14 01:45:10;;;;;;;12.18;6.81;;;;;;;;;;357778;148;858007;-59
2021/08/14 01:46:13;;;;;;;12.36;6.78;;;;;;;;;;357820;148;859991;-60
2021/08/14 01:47:14;;;;;;;9.60;6.37;;;;;;;;;;359456;149;858816;-60
2021/08/14 01:48:16;;;;;;;13.19;6.59;;;;;;;;;;358320;147;857268;-60
2021/08/14 01:49:18;;;;;;;12.79;6.87;;;;;;;;;;358600;148;857372;-59
2021/08/14 01:50:21;;;;;;;11.29;6.34;;;;;;;;;;357477;150;857297;-59
2021/08/14 01:51:22;;;;;;;12.27;6.09;;;;;;;;;;358670;150;857415;-59
2021/08/14 01:52:24;;;;;;;10.26;6.12;;;;;;;;;;357570;147;859072;-60
2021/08/14 01:53:25;;;;;;;9.36;6.35;;;;;;;;;;358990;148;857797;-59
2021/08/14 01:54:27;;;;;;;10.49;6.64;;;;;;;;;;361171;148;858700;-60
2021/08/14 01:55:28;;;;;;;11.00;6.43;;;;;;;;;;358285;148;859791;-60
2021/08/14 01:56:32;;;;;;;11.47;6.47;;;;;;;;;;357045;148;857960;-59
2021/08/14 01:57:34;;;;;;;12.82;7.15;;;;;;;;;;355322;150;858950;-59
2021/08/14 01:58:35;;;;;;;14.41;7.01;;;;;;;;;;358803;147;865645;-60
2021/08/14 01:59:37;;;;;;;8.51;6.29;;;;;;;;;;357564;148;857880;-60
2021/08/14 02:00:40;;;;;;;12.51;6.29;;;;;;;;;;354336;148;864866;-60
2021/08/14 02:01:41;;;;;;;10.18;6.64;;;;;;;;;;358165;150;857176;-59
2021/08/14 02:02:43;;;;;;;12.66;6.58;;;;;;;;;;359978;148;859342;-59
2021/08/14 02:03:46;;;;;;;10.20;6.37;;;;;;;;;;357559;148;858581;-59
2021/08/14 02:04:48;;;;;;;9.34;6.25;;;;;;;;;;359681;149;857718;-58
2021/08/14 02:05:49;;;;;;;9.67;7.01;;;;;;;;;;359809;149;857134;-60
2021/08/14 02:06:52;;;;;;;10.68;6.80;;;;;;;;;;356388;148;860559;-59
2021/08/14 02:07:54;;;;;;;9.24;6.46;;;;;;;;;;357297;148;858594;-60
2021/08/14 02:08:56;;;;;;;9.91;6.50;;;;;;;;;;357087;147;857333;-60
2021/08/14 02:09:57;;;;;;;14.01;6.92;;;;;;;;;;359140;148;857296;-59
2021/08/14 02:11:01;;;;;;;15.26;7.39;;;;;;;;;;357488;148;857287;-60
2021/08/14 02:12:03;;;;;;;12.28;6.55;;;;;;;;;;359663;150;857253;-60
2021/08/14 02:13:04;;;;;;;9.12;6.32;;;;;;;;;;359361;148;857265;-60
2021/08/14 02:14:06;;;;;;;11.51;6.74;;;;;;;;;;358346;148;858001;-60
2021/08/14 02:15:08;;;;;;;10.12;6.54;;;;;;;;;;358732;148;857170;-60
2021/08/14 02:16:10;;;;;;;9.29;6.25;;;;;;;;;;359455;148;857107;-60
2021/08/14 02:17:12;;;;;;;11.34;6.42;;;;;;;;;;360073;148;865651;-60
2021/08/14 02:18:13;;;;;;;11.35;6.75;;;;;;;;;;358452;148;865101;-61
2021/08/14 02:19:15;;;;;;;10.52;6.95;;;;;;;;;;358862;147;857359;-61
2021/08/14 02:20:17;;;;;;;10.85;6.68;;;;;;;;;;358103;148;857142;-60
2021/08/14 02:21:19;;;;;;;14.14;6.86;;;;;;;;;;358296;148;857155;-59
2021/08/14 02:22:20;;;;;;;10.96;6.90;;;;;;;;;;357070;149;857473;-60
2021/08/14 02:23:22;;;;;;;9.39;6.55;;;;;;;;;;357737;150;857357;-60
2021/08/14 02:24:23;;;;;;;10.41;7.08;;;;;;;;;;357586;148;857403;-60
2021/08/14 02:25:25;;;;;;;11.17;6.66;;;;;;;;;;357656;147;859065;-60
2021/08/14 02:26:27;;;;;;;11.89;7.05;;;;;;;;;;357588;149;858901;-60
2021/08/14 02:27:28;;;;;;;14.05;7.54;;;;;;;;;;356773;148;857952;-59
2021/08/14 02:28:30;;;;;;;10.12;6.61;;;;;;;;;;357916;148;858566;-60
2021/08/14 02:29:33;;;;;;;12.97;7.35;;;;;;;;;;360633;147;857191;-60
2021/08/14 02:30:36;;;;;;;10.01;6.75;;;;;;;;;;361389;147;857674;-60
2021/08/14 02:31:38;;;;;;;13.31;7.04;;;;;;;;;;362601;147;859483;-59
2021/08/14 02:32:39;;;;;;;13.24;6.52;;;;;;;;;;358215;146;865202;-60
2021/08/14 02:33:41;;;;;;;14.73;7.31;;;;;;;;;;359865;149;857072;-58
2021/08/14 02:34:42;;;;;;;9.61;6.56;;;;;;;;;;361566;149;857400;-58
2021/08/14 02:35:44;;;;;;;10.51;6.94;;;;;;;;;;360903;146;859632;-59
2021/08/14 02:36:46;;;;;;;9.97;6.78;;;;;;;;;;360602;146;859653;-58
2021/08/14 02:37:48;;;;;;;10.59;5.82;;;;;;;;;;361633;146;858662;-58
2021/08/14 02:38:49;;;;;;;12.94;6.64;;;;;;;;;;358792;147;857333;-59
2021/08/14 02:39:51;;;;;;;11.54;6.94;;;;;;;;;;359068;146;857246;-59
2021/08/14 02:40:54;;;;;;;11.67;7.41;;;;;;;;;;359997;149;857186;-59
2021/08/14 02:41:55;;;;;;;13.82;7.30;;;;;;;;;;359076;149;857267;-57
2021/08/14 02:42:57;;;;;;;12.94;7.63;;;;;;;;;;359206;146;857240;-57
2021/08/14 02:43:58;;;;;;;13.43;7.49;;;;;;;;;;360125;147;857270;-60
2021/08/14 02:45:00;;;;;;;11.29;7.29;;;;;;;;;;359103;149;859279;-60
2021/08/14 02:46:02;;;;;;;14.29;7.09;;;;;;;;;;360761;147;858307;-59
2021/08/14 02:47:04;;;;;;;11.29;6.98;;;;;;;;;;360126;147;866143;-58
2021/08/14 02:48:06;;;;;;;11.38;7.10;;;;;;;;;;358504;149;857883;-58
2021/08/14 02:49:07;;;;;;;10.62;6.93;;;;;;;;;;361602;147;859820;-58
2021/08/14 02:50:10;;;;;;;11.60;7.08;;;;;;;;;;359636;148;857735;-58
2021/08/14 02:51:11;;;;;;;10.99;7.06;;;;;;;;;;361377;147;857156;-58
2021/08/14 02:52:13;;;;;;;10.74;6.50;;;;;;;;;;360804;149;866680;-59
2021/08/14 02:53:15;;;;;;;10.57;6.79;;;;;;;;;;361349;148;857348;-58
2021/08/14 02:54:16;;;;;;;13.04;6.76;;;;;;;;;;361034;147;860290;-58
2021/08/14 02:55:18;;;;;;;13.01;6.99;;;;;;;;;;360592;149;865906;-59
2021/08/14 02:56:21;;;;;;;12.27;7.40;;;;;;;;;;361334;146;858926;-59
2021/08/14 02:57:22;;;;;;;12.14;7.59;;;;;;;;;;360854;146;866096;-58
2021/08/14 02:58:24;;;;;;;14.38;7.95;;;;;;;;;;359558;149;857959;-59
2021/08/14 02:59:26;;;;;;;12.35;6.66;;;;;;;;;;361547;147;858655;-59
2021/08/14 03:00:29;;;;;;;13.12;7.73;;;;;;;;;;357961;149;857225;-59
2021/08/14 03:01:30;;;;;;;12.32;7.44;;;;;;;;;;361170;147;857325;-59
2021/08/14 03:02:32;;;;;;;13.41;8.09;;;;;;;;;;355548;149;857193;-58
2021/08/14 03:03:34;;;;;;;15.19;7.66;;;;;;;;;;358600;149;857256;-57
2021/08/14 03:04:35;;;;;;;11.24;7.51;;;;;;;;;;359706;148;859001;-58
2021/08/14 03:05:37;;;;;;;10.86;7.06;;;;;;;;;;361026;147;858952;-58
2021/08/14 03:06:39;;;;;;;13.42;8.01;;;;;;;;;;360833;149;857987;-58
2021/08/14 03:07:41;;;;;;;13.33;7.43;;;;;;;;;;356975;149;868319;-58
2021/08/14 03:08:42;;;;;;;13.04;7.93;;;;;;;;;;359200;146;858269;-58
2021/08/14 03:09:44;;;;;;;12.24;7.11;;;;;;;;;;361497;147;857307;-57
2021/08/14 03:10:48;;;;;;;12.69;7.18;;;;;;;;;;360164;148;865062;-58
2021/08/14 03:11:49;;;;;;;12.40;7.28;;;;;;;;;;360862;146;859903;-58
2021/08/14 03:12:51;;;;;;;12.09;7.73;;;;;;;;;;358374;146;864847;-58
2021/08/14 03:13:52;;;;;;;14.38;6.99;;;;;;;;;;359953;149;857262;-58
2021/08/14 03:14:54;;;;;;;13.13;7.26;;;;;;;;;;360919;148;857228;-58
2021/08/14 03:15:55;;;;;;;12.36;7.34;;;;;;;;;;358104;147;859115;-58
2021/08/14 03:16:57;;;;;;;13.57;6.92;;;;;;;;;;359243;149;868605;-58
2021/08/14 03:17:59;;;;;;;14.61;7.69;;;;;;;;;;360695;149;857390;-59
2021/08/14 03:19:00;;;;;;;13.80;7.71;;;;;;;;;;359578;146;857996;-58
2021/08/14 03:20:03;;;;;;;11.46;7.46;;;;;;;;;;360092;149;856450;-58
2021/08/14 03:21:04;;;;;;;11.81;7.53;;;;;;;;;;357931;149;865128;-58
2021/08/14 03:22:06;;;;;;;9.95;6.77;;;;;;;;;;358160;146;859593;-58
2021/08/14 03:23:07;;;;;;;12.36;7.08;;;;;;;;;;362144;146;857283;-57
2021/08/14 03:24:09;;;;;;;12.41;7.56;;;;;;;;;;360287;149;857605;-58
2021/08/14 03:25:10;;;;;;;10.83;7.30;;;;;;;;;;360317;149;857208;-58
2021/08/14 03:26:12;;;;;;;12.89;7.53;;;;;;;;;;358758;147;857349;-60
2021/08/14 03:27:14;;;;;;;15.47;7.51;;;;;;;;;;361254;147;860470;-59
2021/08/14 03:28:16;;;;;;;11.06;7.31;;;;;;;;;;361722;149;857155;-59
2021/08/14 03:29:17;;;;;;;13.17;7.11;;;;;;;;;;358783;146;857107;-57
2021/08/14 03:30:21;;;;;;;11.19;6.91;;;;;;;;;;358187;147;857179;-58
2021/08/14 03:39:41;;;;;;;11.06;7.31;;;;;;;14.27;65.10;100594.11;373770;142;881480;-59
2021/08/14 03:40:44;;;;;;;12.43;7.11;;;;;;;14.23;64.80;100589.82;362726;145;857090;-59
2021/08/14 03:41:45;;;;;;;12.09;7.43;;;;;;;14.31;64.56;100597.55;361410;147;857291;-59
2021/08/14 03:42:47;;;;;;;14.59;7.22;;;;;;;14.32;64.37;100601.88;364179;145;866798;-59
2021/08/14 03:43:49;;;;;;;11.47;8.10;;;;;;;14.34;64.41;100594.06;361710;146;864928;-59
2021/08/14 03:44:53;;;;;;;13.29;7.29;;;;;;;14.34;64.41;100591.45;362741;145;864826;-58
2021/08/14 03:45:54;;;;;;;10.66;7.22;;;;;;;14.34;64.51;100596.67;363959;144;864832;-59
2021/08/14 03:46:57;;;;;;;12.36;7.59;;;;;;;14.30;64.74;100601.04;362982;145;865048;-58
2021/08/14 03:47:59;;;;;;;16.12;8.16;;;;;;;14.28;65.01;100594.99;364837;145;857275;-58
2021/08/14 03:49:00;;;;;;;11.22;7.49;;;;;;;;;;363108;147;866620;-58
2021/08/14 03:50:02;;;;;;;14.16;8.19;;;;;;;;;;361510;146;864452;-57
2021/08/14 03:51:04;;;;;;;11.72;7.78;;;;;;;;;;362333;145;868747;-57
2021/08/14 03:52:06;;;;;;;10.54;7.26;;;;;;;;;;361719;145;857207;-59
2021/08/14 03:53:07;;;;;;;12.44;7.49;;;;;;;;;;361827;145;857081;-58
2021/08/14 03:54:09;;;;;;;11.99;7.36;;;;;;;;;;362260;145;858302;-59
2021/08/14 03:55:11;;;;;;;12.45;7.82;;;;;;;;;;363331;145;864971;-58
2021/08/14 03:56:13;;;;;;;12.59;7.52;;;;;;;;;;361158;147;857140;-58
2021/08/14 03:57:15;;;;;;;13.82;8.32;;;;;;;;;;361702;144;858947;-58
2021/08/14 03:58:17;;;;;;;12.10;7.56;;;;;;;;;;362213;144;865292;-58
2021/08/14 03:59:18;;;;;;;14.96;8.05;;;;;;;;;;357571;148;860206;-58
2021/08/14 04:00:20;;;;;;;11.47;7.34;;;;;;;;;;358960;147;860013;-58
2021/08/14 04:01:22;;;;;;;10.93;7.18;;;;;;;;;;357382;148;857210;-58
2021/08/14 04:02:23;;;;;;;10.10;7.37;;;;;;;;;;358172;147;857217;-62
2021/08/14 04:03:25;;;;;;;11.73;7.08;;;;;;;;;;356440;147;865041;-60
2021/08/14 04:04:26;;;;;;;12.16;7.29;;;;;;;;;;359066;148;859007;-59
2021/08/14 04:05:28;;;;;;;14.24;7.71;;;;;;;;;;359091;147;858751;-59
2021/08/14 04:06:30;;;;;;;15.15;7.43;;;;;;;;;;359349;147;861471;-59
2021/08/14 04:07:32;;;;;;;14.54;7.24;;;;;;;;;;362952;148;858665;-60
2021/08/14 04:08:33;;;;;;;12.95;7.04;;;;;;;;;;358870;148;857071;-59
2021/08/14 04:09:35;;;;;;;10.82;7.59;;;;;;;;;;359217;147;865020;-59
2021/08/14 04:10:38;;;;;;;10.05;6.92;;;;;;;;;;357449;149;857762;-58
2021/08/14 04:11:43;;;;;;;12.84;7.50;;;;;;;;;;355942;150;858909;-60
2021/08/14 04:12:45;;;;;;;11.99;7.49;;;;;;;;;;357644;149;856856;-59
2021/08/14 04:13:46;;;;;;;13.04;8.24;;;;;;;;;;358448;149;858657;-58
2021/08/14 04:14:48;;;;;;;13.15;7.71;;;;;;;;;;359564;148;857283;-60
2021/08/14 04:15:50;;;;;;;11.74;8.29;;;;;;;;;;358910;149;858912;-58
2021/08/14 04:16:52;;;;;;;23.84;8.02;;;;;;;;;;358830;148;865811;-60
2021/08/14 04:17:54;;;;;;;15.39;7.91;;;;;;;;;;359760;147;864956;-59
2021/08/14 04:18:56;;;;;;;12.23;7.63;;;;;;;;;;358390;147;857315;-59
2021/08/14 04:19:57;;;;;;;12.19;7.78;;;;;;;;;;358813;147;857290;-61
2021/08/14 04:20:59;;;;;;;14.48;7.99;;;;;;;;;;359408;147;859194;-60
2021/08/14 04:22:01;;;;;;;14.98;8.64;;;;;;;;;;356755;147;859466;-61
2021/08/14 04:23:03;;;;;;;15.51;8.26;;;;;;;;;;356462;147;856701;-60
2021/08/14 04:24:05;;;;;;;14.96;8.14;;;;;;;;;;357594;147;857281;-60
2021/08/14 04:25:07;;;;;;;13.53;8.29;;;;;;;;;;361372;147;857230;-61
2021/08/14 04:26:10;;;;;;;12.41;7.62;;;;;;;;;;357058;147;864874;-60
2021/08/14 04:27:12;;;;;;;15.12;7.94;;;;;;;;;;359662;147;858510;-60
2021/08/14 04:28:13;;;;;;;14.47;8.49;;;;;;;;;;358952;150;858520;-61
2021/08/14 04:29:15;;;;;;;12.41;8.12;;;;;;;;;;357858;148;857344;-61
2021/08/14 04:30:18;;;;;;;15.32;7.74;;;;;;;;;;356803;149;857272;-59
2021/08/14 04:31:20;;;;;;;11.44;7.59;;;;;;;;;;358175;147;857795;-58
2021/08/14 04:32:21;;;;;;;12.79;7.10;;;;;;;;;;357748;149;867046;-59
2021/08/14 04:33:23;;;;;;;13.69;7.85;;;;;;;;;;358791;148;858385;-59
2021/08/14 04:34:24;;;;;;;14.07;7.49;;;;;;;;;;358804;147;860939;-58
2021/08/14 04:35:26;;;;;;;11.08;7.50;;;;;;;;;;358991;149;857206;-62
2021/08/14 04:36:30;;;;;;;13.69;7.87;;;;;;;;;;359151;147;857329;-59
2021/08/14 04:37:31;;;;;;;13.08;7.77;;;;;;;;;;358677;148;857529;-59
2021/08/14 04:38:33;;;;;;;12.58;7.36;;;;;;;;;;358032;147;857713;-59
2021/08/14 04:39:34;;;;;;;12.19;7.54;;;;;;;;;;358979;147;865026;-59
2021/08/14 04:40:37;;;;;;;13.45;7.11;;;;;;;;;;359211;148;857351;-58
2021/08/14 04:41:38;;;;;;;14.39;7.70;;;;;;;;;;359382;147;858224;-59
2021/08/14 04:42:40;;;;;;;12.71;7.15;;;;;;;;;;358832;150;858122;-58
2021/08/14 04:43:42;;;;;;;13.27;7.09;;;;;;;;;;358860;148;857754;-59
2021/08/14 04:44:44;;;;;;;11.48;7.35;;;;;;;;;;357557;147;857324;-58
2021/08/14 04:45:47;;;;;;;14.52;8.24;;;;;;;;;;358487;149;857273;-63
2021/08/14 05:00:33;;;;;;;10.94;6.17;;;;;;;18.08;62.84;100599.56;372352;141;881348;-60
2021/08/14 05:01:36;;;;;;;12.11;7.07;;;;;;;18.02;62.68;100597.97;359679;148;858921;-62
2021/08/14 05:02:39;;;;;;;10.64;6.72;;;;;;;18.07;62.88;100601.31;359791;147;858233;-59
2021/08/14 05:03:40;;;;;;;10.59;6.83;;;;;;;18.13;62.46;100599.42;358829;149;865855;-62
2021/08/14 05:04:42;;;;;;;11.53;6.86;;;;;;;18.17;62.49;100601.05;358164;149;857343;-61
2021/08/14 05:05:44;;;;;;;9.78;6.33;;;;;;;18.21;62.48;100595.69;359940;147;865440;-61
2021/08/14 05:06:46;;;;;;;13.98;7.12;;;;;;;18.27;61.86;100601.65;361054;147;866062;-61
2021/08/14 05:07:48;;;;;;;10.39;6.63;;;;;;;18.30;61.67;48178.80;359896;147;858920;-60
2021/08/14 05:08:50;;;;;;;11.09;6.58;;;;;;;;;;359366;146;866917;-60
2021/08/14 05:09:52;;;;;;;14.31;6.68;;;;;;;;;;360354;146;864963;-62
2021/08/14 05:10:55;;;;;;;11.39;6.04;;;;;;;;;;364150;147;858945;-59
2021/08/14 05:11:56;;;;;;;10.66;6.46;;;;;;;;;;359370;147;865053;-61
2021/08/14 05:12:58;;;;;;;9.94;6.22;;;;;;;;;;361671;147;865120;-61
2021/08/14 05:14:00;;;;;;;10.38;6.21;;;;;;;;;;363013;147;865945;-60
2021/08/14 05:15:01;;;;;;;11.01;6.84;;;;;;;;;;361509;147;857320;-60
2021/08/14 05:16:03;;;;;;;11.01;6.04;;;;;;;;;;360449;146;857418;-59
2021/08/14 05:17:05;;;;;;;8.94;5.96;;;;;;;;;;360358;147;866805;-58
2021/08/14 05:18:06;;;;;;;8.65;5.96;;;;;;;;;;360752;147;857841;-58
2021/08/14 05:19:08;;;;;;;9.68;6.23;;;;;;;;;;359670;149;857149;-59
2021/08/14 05:20:11;;;;;;;8.94;5.67;;;;;;;;;;358655;148;857295;-59
2021/08/14 05:21:12;;;;;;;8.33;5.78;;;;;;;;;;361837;147;857286;-57
2021/08/14 05:22:14;;;;;;;8.56;5.67;;;;;;;;;;361847;147;858950;-60
2021/08/14 05:23:15;;;;;;;11.10;5.65;;;;;;;;;;359372;146;857466;-60
2021/08/14 05:24:17;;;;;;;9.06;5.40;;;;;;;;;;359932;147;860511;-61
2021/08/14 05:25:19;;;;;;;9.26;6.21;;;;;;;;;;359956;147;859187;-64
2021/08/14 05:26:22;;;;;;;8.93;5.77;;;;;;;;;;360562;146;857592;-59
2021/08/14 05:27:23;;;;;;;10.69;5.76;;;;;;;;;;359446;146;859312;-61
2021/08/14 05:28:25;;;;;;;9.21;5.06;;;;;;;;;;360470;147;864957;-61
2021/08/14 05:29:27;;;;;;;7.86;4.69;;;;;;;;;;361431;147;857196;-61
2021/08/14 05:30:30;;;;;;;9.25;4.84;;;;;;;;;;359839;146;864790;-60
2021/08/14 05:31:31;;;;;;;7.91;4.99;;;;;;;;;;360762;146;857406;-59
2021/08/14 05:32:33;;;;;;;9.66;4.48;;;;;;;;;;359794;147;857330;-61
2021/08/14 05:33:34;;;;;;;8.89;4.73;;;;;;;;;;359980;146;857299;-59
2021/08/14 05:34:37;;;;;;;6.89;4.84;;;;;;;;;;360523;147;858244;-61
2021/08/14 05:35:39;;;;;;;8.96;4.77;;;;;;;;;;359945;146;857430;-60
2021/08/14 05:36:42;;;;;;;7.09;4.38;;;;;;;;;;361262;146;866477;-60
2021/08/14 05:37:43;;;;;;;7.42;4.49;;;;;;;;;;360134;146;857752;-59
2021/08/14 05:38:45;;;;;;;8.34;4.46;;;;;;;;;;361784;147;865487;-59
2021/08/14 05:39:47;;;;;;;7.54;4.62;;;;;;;;;;359953;148;858987;-59
2021/08/14 05:40:49;;;;;;;6.85;4.25;;;;;;;;;;357962;149;866265;-59
2021/08/14 05:41:52;;;;;;;7.78;4.49;;;;;;;;;;356025;147;859566;-59
2021/08/14 05:42:55;;;;;;;11.52;4.59;;;;;;;;;;354529;150;857806;-59
2021/08/14 05:43:57;;;;;;;5.99;3.89;;;;;;;;;;356679;149;857915;-60
2021/08/14 05:44:58;;;;;;;7.09;4.43;;;;;;;;;;354831;149;862705;-60
2021/08/14 05:46:00;;;;;;;6.93;4.24;;;;;;;;;;354569;148;858504;-59
2021/08/14 05:47:01;;;;;;;9.01;4.17;;;;;;;;;;354900;150;856396;-60
2021/08/14 05:48:04;;;;;;;6.22;4.61;;;;;;;;;;356113;149;857031;-60
2021/08/14 05:49:05;;;;;;;7.91;4.63;;;;;;;;;;356452;148;856491;-60
2021/08/14 05:50:07;;;;;;;7.71;4.11;;;;;;;;;;357650;148;856445;-60
2021/08/14 05:51:10;;;;;;;6.51;4.23;;;;;;;;;;356413;148;856522;-60
2021/08/14 05:52:11;;;;;;;5.58;3.99;;;;;;;;;;355239;147;856323;-59
2021/08/14 05:53:13;;;;;;;5.91;3.96;;;;;;;;;;357802;149;856884;-60
2021/08/14 05:54:15;;;;;;;6.07;4.25;;;;;;;;;;356841;150;863734;-60
2021/08/14 05:55:17;;;;;;;7.89;4.11;;;;;;;;;;357004;148;863645;-59
2021/08/14 05:56:19;;;;;;;5.85;3.26;;;;;;;;;;355522;147;856210;-59
2021/08/14 05:57:20;;;;;;;5.65;3.51;;;;;;;;;;355327;150;856520;-60
2021/08/14 05:58:22;;;;;;;7.24;3.78;;;;;;;;;;357711;149;856443;-59
2021/08/14 05:59:24;;;;;;;4.64;3.28;;;;;;;;;;356948;148;856291;-60
2021/08/14 06:00:25;;;;;;;4.57;3.15;;;;;;;;;;358572;148;856196;-60
2021/08/14 06:01:27;;;;;;;4.94;3.24;;;;;;;;;;357921;148;863587;-61
2021/08/14 06:02:29;;;;;;;5.48;3.00;;;;;;;;;;356070;149;856265;-61
2021/08/14 06:03:34;;;;;;;4.78;3.41;;;;;;;;;;356805;147;856259;-60
2021/08/14 06:04:36;;;;;;;4.86;2.95;;;;;;;;;;355907;148;856203;-60
2021/08/14 06:05:37;;;;;;;4.81;2.81;;;;;;;;;;358178;148;856321;-60
2021/08/14 06:06:42;;;;;;;6.20;3.22;;;;;;;;;;356971;147;857193;-60
2021/08/14 06:07:43;;;;;;;9.43;3.33;;;;;;;;;;353957;148;856185;-60
2021/08/14 06:08:45;;;;;;;4.29;3.04;;;;;;;;;;349936;152;856273;-60
2021/08/14 06:09:46;;;;;;;8.36;3.41;;;;;;;;;;351880;147;856421;-61
2021/08/14 06:10:51;;;;;;;4.24;2.99;;;;;;;;;;360013;147;856273;-60
2021/08/14 06:11:53;;;;;;;8.22;3.27;;;;;;;;;;359003;146;856382;-60
2021/08/14 06:12:54;;;;;;;4.99;3.21;;;;;;;;;;359586;146;858326;-61
2021/08/14 06:13:56;;;;;;;5.96;3.04;;;;;;;;;;360147;147;856348;-61
2021/08/14 06:14:57;;;;;;;4.51;3.16;;;;;;;;;;362192;147;856379;-61
2021/08/14 06:15:59;;;;;;;4.99;3.21;;;;;;;;;;358772;147;856367;-60
2021/08/14 06:17:01;;;;;;;5.31;2.95;;;;;;;;;;359639;147;856457;-61
2021/08/14 06:18:03;;;;;;;7.35;3.20;;;;;;;;;;360291;147;856474;-60
2021/08/14 06:19:04;;;;;;;5.36;3.71;;;;;;;;;;359969;149;856387;-60